createdAt,value
2024-04-19T00:02:24.799Z,0.98
2024-04-19T00:07:27.308Z,0.50
2024-04-19T00:12:29.155Z,0.52
2024-04-19T00:17:31.041Z,0.80
2024-04-19T00:22:32.751Z,0.47
2024-04-19T00:27:34.943Z,0.88
2024-04-19T00:32:37.081Z,0.73
2024-04-19T00:37:38.865Z,0.60
2024-04-19T00:42:40.727Z,1.15
2024-04-19T00:47:42.912Z,0.50
2024-04-19T00:52:44.705Z,0.63
2024-04-19T00:57:46.838Z,0.50
2024-04-19T01:02:49.707Z,0.50
2024-04-19T01:07:52.739Z,0.75
2024-04-19T01:12:54.704Z,0.70
2024-04-19T01:17:56.688Z,0.60
2024-04-19T01:22:59.468Z,0.50
2024-04-19T01:28:02.694Z,0.55
2024-04-19T01:33:04.945Z,0.95
2024-04-19T01:38:07.386Z,0.70
2024-04-19T01:43:09.616Z,0.45
2024-04-19T01:48:11.895Z,0.70
2024-04-19T01:53:13.508Z,0.82
2024-04-19T01:58:15.273Z,0.50
2024-04-19T02:03:17.962Z,0.50
2024-04-19T02:08:19.574Z,0.55
2024-04-19T02:13:21.251Z,0.73
2024-04-19T02:18:23.142Z,0.70
2024-04-19T02:23:37.006Z,0.50
2024-04-19T02:29:00.040Z,0.60
2024-04-19T02:34:01.734Z,0.60
2024-04-19T02:39:03.384Z,0.60
2024-04-19T02:44:05.102Z,0.73
2024-04-19T02:49:06.652Z,0.70
2024-04-19T02:54:08.318Z,0.85
2024-04-19T02:59:09.930Z,0.70
2024-04-19T03:04:11.950Z,0.65
2024-04-19T03:09:13.673Z,0.70
2024-04-19T03:14:15.346Z,0.82
2024-04-19T03:19:17.207Z,0.93
2024-04-19T03:24:18.818Z,1.00
2024-04-19T03:29:20.376Z,0.80
2024-04-19T03:34:22.416Z,0.95
2024-04-19T03:39:24.067Z,0.70
2024-04-19T03:44:44.190Z,0.82
2024-04-19T03:49:45.819Z,0.70
2024-04-19T03:54:47.468Z,0.80
2024-04-19T03:59:49.068Z,0.90
2024-04-19T04:04:50.708Z,1.60
2024-04-19T04:09:53.010Z,0.98
2024-04-19T04:14:55.350Z,1.00
2024-04-19T04:19:57.002Z,0.90
2024-04-19T04:24:58.510Z,0.90
2024-04-19T04:30:00.147Z,0.80
2024-04-19T04:35:01.717Z,1.10
2024-04-19T04:40:03.521Z,1.45
2024-04-19T04:45:05.415Z,1.73
2024-04-19T04:50:07.320Z,1.55
2024-04-19T04:55:09.951Z,1.42
2024-04-19T05:00:12.106Z,1.65
2024-04-19T05:05:14.969Z,1.40
2024-04-19T05:10:18.253Z,0.70
2024-04-19T05:15:20.175Z,1.33
2024-04-19T05:20:22.516Z,1.70
2024-04-19T05:25:24.216Z,0.98
2024-04-19T05:30:28.791Z,1.10
2024-04-19T05:35:30.414Z,0.43
2024-04-19T05:40:31.991Z,0.40
2024-04-19T05:45:33.602Z,0.40
2024-04-19T05:50:35.223Z,0.57
2024-04-19T05:55:36.831Z,0.40
2024-04-19T06:00:38.488Z,0.40
2024-04-19T06:05:40.139Z,0.63
2024-04-19T06:10:42.021Z,0.50
2024-04-19T06:15:44.287Z,0.63
2024-04-19T06:20:45.913Z,0.40
2024-04-19T06:25:48.163Z,0.30
2024-04-19T06:30:49.816Z,0.43
2024-04-19T06:35:51.448Z,0.70
2024-04-19T06:40:53.003Z,0.70
2024-04-19T06:45:58.237Z,0.90
2024-04-19T06:51:00.050Z,1.15
2024-04-19T06:56:01.848Z,1.20
2024-04-19T07:01:16.336Z,1.50
2024-04-19T07:06:27.526Z,2.08
2024-04-19T07:11:36.920Z,1.95
2024-04-19T07:16:39.424Z,1.95
2024-04-19T07:21:41.940Z,1.70
2024-04-19T07:26:44.990Z,1.73
2024-04-19T07:31:46.920Z,2.10
2024-04-19T07:36:48.789Z,1.90
2024-04-19T07:41:50.552Z,2.00
2024-04-19T07:46:52.322Z,1.80
2024-04-19T07:51:54.767Z,1.42
2024-04-19T07:56:56.687Z,2.33
2024-04-19T08:01:59.508Z,2.28
2024-04-19T08:07:01.405Z,1.73
2024-04-19T08:12:05.204Z,2.28
2024-04-19T08:17:08.304Z,2.60
2024-04-19T08:22:11.670Z,2.97
2024-04-19T08:27:13.601Z,2.42
2024-04-19T08:32:16.303Z,2.10
2024-04-19T08:37:18.137Z,2.03
2024-04-19T08:42:22.692Z,3.00
2024-04-19T08:47:33.218Z,2.65
2024-04-19T08:52:58.371Z,2.42
2024-04-19T08:58:02.268Z,2.67
2024-04-19T09:03:05.802Z,2.65
2024-04-19T09:08:08.568Z,2.67
2024-04-19T09:13:10.442Z,2.53
2024-04-19T09:18:12.137Z,2.42
2024-04-19T09:23:13.689Z,2.45
2024-04-19T09:28:17.097Z,2.92
2024-04-19T09:33:24.427Z,1.83
2024-04-19T09:38:27.281Z,2.80
2024-04-19T09:43:34.310Z,2.55
2024-04-19T09:48:41.472Z,2.65
2024-04-19T09:53:46.023Z,2.05
2024-04-19T09:58:48.906Z,2.45
2024-04-19T10:03:52.237Z,2.40
2024-04-19T10:08:56.789Z,1.80
2024-04-19T10:13:58.481Z,1.95
2024-04-19T10:19:01.324Z,1.58
2024-04-19T10:24:21.258Z,1.20
2024-04-19T10:29:23.769Z,1.30
2024-04-19T10:34:25.474Z,1.20
2024-04-19T10:39:27.181Z,1.25
2024-04-19T10:44:32.185Z,1.00
2024-04-19T10:49:33.951Z,1.02
2024-04-19T10:54:37.047Z,0.90
2024-04-19T10:59:38.610Z,1.08
2024-04-19T11:04:40.941Z,1.05
2024-04-19T11:09:42.959Z,0.90
2024-04-19T11:14:44.619Z,0.98
2024-04-19T11:19:47.931Z,0.88
2024-04-19T11:24:54.634Z,1.08
2024-04-19T11:29:59.120Z,1.23
2024-04-19T11:35:09.337Z,0.70
2024-04-19T11:40:22.301Z,0.80
2024-04-19T11:45:25.568Z,1.05
2024-04-19T11:50:28.094Z,0.82
2024-04-19T11:55:29.844Z,0.82
2024-04-19T12:00:31.558Z,0.90
2024-04-19T12:05:33.864Z,0.70
2024-04-19T12:10:35.736Z,0.60
2024-04-19T12:16:16.241Z,0.73
2024-04-19T12:20:59.483Z,0.80
2024-04-19T12:26:02.832Z,0.77
2024-04-19T12:31:05.001Z,0.77
2024-04-19T12:36:11.972Z,0.70
2024-04-19T12:41:17.198Z,0.68
2024-04-19T12:46:19.545Z,0.65
2024-04-19T12:51:25.216Z,0.70
2024-04-19T12:56:27.385Z,0.80
2024-04-19T13:01:29.193Z,0.70
2024-04-19T13:06:32.187Z,0.90
2024-04-19T13:11:34.084Z,0.82
2024-04-19T13:16:36.116Z,1.13
2024-04-19T13:21:37.831Z,1.15
2024-04-19T13:26:39.543Z,1.35
2024-04-19T13:31:41.339Z,1.30
2024-04-19T13:36:43.428Z,0.30
2024-04-19T13:41:45.582Z,0.10
2024-04-19T13:46:47.992Z,0.10
2024-04-19T13:51:50.521Z,0.20
2024-04-19T13:56:52.867Z,0.22
2024-04-19T14:01:57.094Z,0.10
2024-04-19T14:07:02.467Z,0.10
2024-04-19T14:12:06.356Z,0.00
2024-04-19T14:17:16.073Z,0.10
2024-04-19T14:22:18.066Z,0.00
2024-04-19T14:27:19.783Z,0.10
2024-04-19T14:32:21.509Z,0.10
2024-04-19T14:37:23.268Z,0.10
2024-04-19T14:42:27.844Z,0.10
2024-04-19T14:47:30.260Z,0.10
2024-04-19T14:52:31.960Z,0.10
2024-04-19T14:57:34.125Z,0.10
2024-04-19T15:02:35.913Z,0.10
2024-04-19T15:07:41.168Z,0.05
2024-04-19T15:12:42.874Z,0.30
2024-04-19T15:17:44.762Z,0.20
2024-04-19T15:22:46.328Z,0.20
2024-04-19T15:27:47.884Z,0.13
2024-04-19T15:32:49.516Z,0.10
2024-04-19T15:37:51.088Z,0.15
2024-04-19T15:42:52.700Z,0.30
2024-04-19T15:47:54.585Z,0.10
2024-04-19T15:52:56.215Z,0.20
2024-04-19T15:57:59.710Z,0.10
2024-04-19T16:03:01.344Z,0.20
2024-04-19T16:08:03.150Z,0.15
2024-04-19T16:13:05.123Z,0.10
2024-04-19T16:18:06.943Z,0.10
2024-04-19T16:23:08.738Z,0.00
2024-04-19T16:28:10.577Z,0.00
2024-04-19T16:33:13.334Z,0.10
2024-04-19T16:38:15.852Z,0.10
2024-04-19T16:43:17.885Z,0.10
2024-04-19T16:48:23.347Z,0.00
2024-04-19T16:53:32.295Z,0.00
2024-04-19T16:58:34.099Z,0.00
2024-04-19T17:03:35.867Z,0.10
2024-04-19T17:08:38.055Z,0.10
2024-04-19T17:13:40.211Z,0.00
2024-04-19T17:18:42.215Z,0.10
2024-04-19T17:23:43.877Z,0.10
2024-04-19T17:28:45.693Z,0.10
2024-04-19T17:33:47.295Z,0.20
2024-04-19T17:38:48.967Z,0.50
2024-04-19T17:43:50.687Z,0.20
2024-04-19T17:48:52.277Z,0.22
2024-04-19T17:53:53.899Z,0.30
2024-04-19T17:58:55.732Z,0.63
2024-04-19T18:03:57.356Z,0.43
2024-04-19T18:08:58.927Z,0.32
2024-04-19T18:14:00.463Z,0.43
2024-04-19T18:19:04.606Z,0.20
2024-04-19T18:24:09.798Z,0.30
2024-04-19T18:29:12.031Z,0.30
2024-04-19T18:34:17.167Z,0.20
2024-04-19T18:39:18.881Z,0.20
2024-04-19T18:44:20.473Z,0.20
2024-04-19T18:49:22.211Z,0.30
2024-04-19T18:54:23.761Z,0.20
2024-04-19T18:59:28.146Z,0.65
2024-04-19T19:04:31.943Z,0.40
2024-04-19T19:09:34.144Z,0.30
2024-04-19T19:14:36.658Z,0.20
2024-04-19T19:19:38.738Z,0.20
2024-04-19T19:24:40.330Z,0.60
2024-04-19T19:29:41.912Z,0.50
2024-04-19T19:34:43.427Z,1.30
2024-04-19T19:39:45.072Z,0.30
2024-04-19T19:44:49.611Z,0.70
2024-04-19T19:49:59.155Z,1.08
2024-04-19T19:55:02.377Z,0.30
2024-04-19T20:00:23.361Z,0.50
2024-04-19T20:05:43.609Z,0.20
2024-04-19T20:10:45.333Z,0.30
2024-04-19T20:15:48.603Z,0.40
2024-04-19T20:20:50.773Z,0.32
2024-04-19T20:25:52.342Z,0.40
2024-04-19T20:30:54.092Z,0.50
2024-04-19T20:35:55.679Z,0.30
2024-04-19T20:40:58.207Z,0.35
2024-04-19T20:46:00.474Z,0.25
2024-04-19T20:51:02.090Z,0.25
2024-04-19T20:56:04.107Z,0.40
2024-04-19T21:01:12.176Z,0.40
2024-04-19T21:06:16.665Z,0.38
2024-04-19T21:11:18.322Z,0.30
2024-04-19T21:16:20.193Z,0.30
2024-04-19T21:21:21.735Z,0.13
2024-04-19T21:26:23.845Z,0.22
2024-04-19T21:31:25.575Z,0.60
2024-04-19T21:36:30.677Z,0.20
2024-04-19T21:41:32.301Z,0.47
2024-04-19T21:46:34.137Z,0.40
2024-04-19T21:51:35.819Z,0.30
2024-04-19T21:56:37.532Z,0.40
2024-04-19T22:01:39.834Z,0.50
2024-04-19T22:06:41.415Z,0.43
2024-04-19T22:11:43.481Z,0.70
2024-04-19T22:16:45.066Z,0.50
2024-04-19T22:21:48.148Z,0.47
2024-04-19T22:26:52.552Z,0.30
2024-04-19T22:31:55.476Z,0.40
2024-04-19T22:36:57.684Z,0.55
2024-04-19T22:41:59.532Z,0.88
2024-04-19T22:47:01.035Z,0.50
2024-04-19T22:52:02.563Z,0.30
2024-04-19T22:57:04.309Z,0.50
2024-04-19T23:02:05.860Z,0.40
2024-04-19T23:07:07.363Z,0.63
2024-04-19T23:12:08.909Z,0.50
2024-04-19T23:17:10.443Z,0.70
2024-04-19T23:22:12.387Z,0.30
2024-04-19T23:27:13.879Z,0.20
2024-04-19T23:32:15.630Z,0.20
2024-04-19T23:37:17.286Z,0.20
2024-04-19T23:42:18.789Z,0.20
2024-04-19T23:47:20.400Z,0.10
2024-04-19T23:52:21.931Z,0.40
2024-04-19T23:57:23.430Z,0.15
